Time;durP1;ratioP1;P1;durP2;ratioP2;P2;SDS_P1;SDS_P2;PMS_P1;PMS_P2;Temp;Humidity;BMP_temperature;BMP_pressure;BME280_temperature;BME280_humidity;BME280_pressure;Samples;Min_cycle;Max_cycle;Signal;HPM_P1;HPM_P2
2024/03/04 00:00:36;;;;;;;18.97;15.23;;;9.60;99.90;;;;;;5058154;28;20425;-63
2024/03/04 00:03:01;;;;;;;26.73;17.60;;;9.60;99.90;;;;;;5056979;28;20420;-59
2024/03/04 00:05:27;;;;;;;21.97;16.40;;;9.50;99.90;;;;;;5056052;28;20264;-60
2024/03/04 00:07:53;;;;;;;20.10;16.53;;;9.60;99.90;;;;;;5065733;28;20664;-63
2024/03/04 00:10:20;;;;;;;21.50;16.23;;;9.50;99.90;;;;;;5067344;28;20435;-63
2024/03/04 00:12:46;;;;;;;22.90;15.80;;;9.50;99.90;;;;;;5064980;28;20417;-63
2024/03/04 00:15:13;;;;;;;26.73;17.10;;;9.50;99.90;;;;;;5063863;28;20513;-62
2024/03/04 00:17:40;;;;;;;24.83;18.00;;;9.40;99.90;;;;;;5060018;28;20197;-62
2024/03/04 00:20:09;;;;;;;23.77;17.80;;;9.40;99.90;;;;;;5060897;28;20416;-61
2024/03/04 00:22:35;;;;;;;21.90;16.67;;;9.40;99.90;;;;;;5071692;28;20451;-64
2024/03/04 00:25:01;;;;;;;22.97;17.73;;;9.40;99.90;;;;;;5059587;28;20476;-64
2024/03/04 00:27:26;;;;;;;23.47;17.90;;;9.40;99.90;;;;;;5067642;28;20470;-62
2024/03/04 00:29:52;;;;;;;24.30;17.27;;;9.40;99.90;;;;;;5067683;28;20186;-61
2024/03/04 00:32:18;;;;;;;21.77;17.10;;;9.30;99.90;;;;;;5061538;28;20225;-63
2024/03/04 00:34:43;;;;;;;24.20;17.70;;;9.30;99.90;;;;;;5061199;28;20612;-59
2024/03/04 00:37:10;;;;;;;23.43;19.20;;;9.30;99.90;;;;;;5058251;28;20662;-63
2024/03/04 00:39:39;;;;;;;27.07;18.70;;;9.30;99.90;;;;;;5060441;28;20179;-62
2024/03/04 00:42:05;;;;;;;25.10;19.10;;;9.30;99.90;;;;;;5064451;28;20451;-63
2024/03/04 00:44:32;;;;;;;25.27;18.40;;;9.30;99.90;;;;;;5064740;28;20413;-62
2024/03/04 00:46:57;;;;;;;26.57;20.47;;;9.20;99.90;;;;;;5068693;28;20930;-61
2024/03/04 00:49:23;;;;;;;28.30;20.10;;;9.20;99.90;;;;;;5053486;28;20204;-64
2024/03/04 00:51:49;;;;;;;27.10;19.33;;;9.10;99.90;;;;;;5061828;28;20244;-63
2024/03/04 00:54:15;;;;;;;28.23;19.90;;;9.10;99.90;;;;;;5057546;28;20531;-63
2024/03/04 00:56:40;;;;;;;28.67;20.50;;;9.10;99.90;;;;;;5061496;28;20216;-61
2024/03/04 00:59:07;;;;;;;31.47;21.70;;;9.10;99.90;;;;;;5071281;28;20190;-62
2024/03/04 01:01:33;;;;;;;24.80;18.93;;;9.00;99.90;;;;;;5068960;28;20622;-60
2024/03/04 01:03:59;;;;;;;27.77;20.40;;;9.00;99.90;;;;;;5060570;28;20419;-62
2024/03/04 01:06:27;;;;;;;29.73;23.00;;;9.00;99.90;;;;;;5058244;28;20830;-61
2024/03/04 01:08:53;;;;;;;25.70;20.23;;;9.00;99.90;;;;;;5058622;28;21004;-62
2024/03/04 01:11:19;;;;;;;26.53;19.97;;;9.00;99.90;;;;;;5062203;28;20433;-62
2024/03/04 01:13:44;;;;;;;29.70;22.00;;;8.90;99.90;;;;;;5063268;28;20474;-61
2024/03/04 01:16:10;;;;;;;30.47;20.50;;;8.90;99.90;;;;;;5061331;28;20206;-62
2024/03/04 01:18:36;;;;;;;31.13;22.80;;;8.90;99.90;;;;;;5061918;28;20634;-63
2024/03/04 01:21:03;;;;;;;33.30;22.90;;;8.90;99.90;;;;;;5065045;28;20203;-61
2024/03/04 01:23:29;;;;;;;31.50;23.97;;;8.80;99.90;;;;;;5062653;28;20450;-63
2024/03/04 01:25:54;;;;;;;29.60;21.33;;;8.80;99.90;;;;;;5061651;28;20603;-61
2024/03/04 01:28:22;;;;;;;30.87;22.13;;;8.80;99.90;;;;;;5062325;28;20510;-62
2024/03/04 01:30:49;;;;;;;34.30;23.10;;;8.80;99.90;;;;;;5061620;28;20186;-62
2024/03/04 01:33:15;;;;;;;38.00;25.40;;;8.90;99.90;;;;;;5061970;28;20433;-62
2024/03/04 01:35:41;;;;;;;31.50;23.87;;;8.80;99.90;;;;;;5068702;28;20473;-61
2024/03/04 01:38:06;;;;;;;28.90;22.63;;;8.70;99.90;;;;;;5061854;28;20424;-62
2024/03/04 01:40:32;;;;;;;33.77;22.83;;;8.70;99.90;;;;;;5061842;28;20181;-64
2024/03/04 01:42:58;;;;;;;32.40;21.77;;;8.70;99.90;;;;;;5057993;28;20171;-63
2024/03/04 01:45:25;;;;;;;34.00;24.20;;;8.70;99.90;;;;;;5059441;28;20214;-62
2024/03/04 01:47:59;;;;;;;32.50;23.90;;;8.70;99.90;;;;;;5059524;28;20182;-62
2024/03/04 01:50:30;;;;;;;29.43;25.00;;;8.70;99.90;;;;;;5063303;28;20772;-64
2024/03/04 01:52:58;;;;;;;34.40;26.17;;;8.60;99.90;;;;;;5068684;28;20490;-61
2024/03/04 01:55:26;;;;;;;41.20;31.40;;;8.60;99.90;;;;;;5066242;28;20464;-63
2024/03/04 01:57:53;;;;;;;34.43;24.20;;;8.60;99.90;;;;;;5057900;28;20422;-63
2024/03/04 02:00:23;;;;;;;37.43;26.67;;;8.50;99.90;;;;;;5056985;28;20531;-63
2024/03/04 02:02:49;;;;;;;39.07;26.03;;;8.50;99.90;;;;;;5059228;28;20415;-62
2024/03/04 02:05:15;;;;;;;37.17;27.30;;;8.50;99.90;;;;;;5060992;28;20464;-63
2024/03/04 02:07:42;;;;;;;34.27;25.63;;;8.50;99.90;;;;;;5062074;28;20957;-62
2024/03/04 02:10:11;;;;;;;38.83;27.10;;;8.40;99.90;;;;;;5067960;28;20998;-62
2024/03/04 02:12:37;;;;;;;33.90;25.47;;;8.40;99.90;;;;;;5055390;28;20970;-62
2024/03/04 02:15:03;;;;;;;44.60;27.80;;;8.40;99.90;;;;;;5059787;28;20504;-66
2024/03/04 02:17:30;;;;;;;34.27;27.73;;;8.40;99.90;;;;;;5062635;28;20507;-62
2024/03/04 02:20:04;;;;;;;40.40;28.20;;;8.40;99.90;;;;;;5057078;28;20477;-62
2024/03/04 02:22:31;;;;;;;43.23;27.37;;;8.40;99.90;;;;;;5058594;28;20515;-62
2024/03/04 02:24:57;;;;;;;35.50;26.67;;;8.30;99.90;;;;;;5070034;28;20437;-62
2024/03/04 02:27:22;;;;;;;37.43;26.50;;;8.30;99.90;;;;;;5067404;28;20425;-60
2024/03/04 02:29:48;;;;;;;38.20;29.90;;;8.30;99.90;;;;;;5063255;28;20787;-63
2024/03/04 02:32:16;;;;;;;40.40;27.27;;;8.30;99.90;;;;;;5070339;28;20179;-62
2024/03/04 02:34:45;;;;;;;38.50;27.33;;;8.20;99.90;;;;;;5052219;28;20213;-63
2024/03/04 02:37:12;;;;;;;35.30;26.80;;;8.20;99.90;;;;;;5066521;28;20578;-65
2024/03/04 02:39:39;;;;;;;36.50;27.57;;;8.20;99.90;;;;;;5063678;28;20447;-61
2024/03/04 02:42:05;;;;;;;37.80;28.33;;;8.10;99.90;;;;;;5069064;28;20423;-60
2024/03/04 02:44:32;;;;;;;42.00;32.53;;;8.10;99.90;;;;;;5065163;28;20424;-60
2024/03/04 02:46:58;;;;;;;40.60;28.67;;;8.20;99.90;;;;;;5059620;28;20459;-63
2024/03/04 02:49:23;;;;;;;39.10;31.47;;;8.10;99.90;;;;;;5054582;28;20454;-63
2024/03/04 02:51:50;;;;;;;46.23;32.23;;;8.10;99.90;;;;;;5055179;28;20780;-60
2024/03/04 02:54:16;;;;;;;46.77;29.47;;;8.10;99.90;;;;;;5056648;28;20182;-63
2024/03/04 02:56:42;;;;;;;41.63;30.53;;;8.10;99.90;;;;;;5062654;28;20480;-62
2024/03/04 02:59:07;;;;;;;46.87;31.90;;;8.10;99.90;;;;;;5055436;28;20733;-60
2024/03/04 03:01:33;;;;;;;39.33;32.30;;;8.00;99.90;;;;;;5058736;28;20179;-59
2024/03/04 03:03:58;;;;;;;50.67;32.00;;;8.10;99.90;;;;;;5054477;28;20652;-59
2024/03/04 03:06:28;;;;;;;44.13;31.30;;;8.00;99.90;;;;;;5066433;28;20250;-62
2024/03/04 03:08:54;;;;;;;45.90;30.73;;;8.00;99.90;;;;;;5058519;28;20183;-62
2024/03/04 03:11:20;;;;;;;42.50;30.00;;;8.00;99.90;;;;;;5059121;28;20428;-60
2024/03/04 03:13:45;;;;;;;44.33;31.00;;;8.00;99.90;;;;;;5058100;28;20418;-62
2024/03/04 03:16:21;;;;;;;45.20;31.30;;;8.00;99.90;;;;;;5059185;28;20209;-62
2024/03/04 03:18:48;;;;;;;42.20;30.70;;;8.00;99.90;;;;;;5058815;28;20188;-61
2024/03/04 03:21:14;;;;;;;44.77;31.97;;;7.90;99.90;;;;;;5060862;28;20570;-61
2024/03/04 03:23:42;;;;;;;55.03;32.50;;;8.00;99.90;;;;;;5068510;28;20505;-60
2024/03/04 03:26:10;;;;;;;42.93;30.97;;;7.90;99.90;;;;;;5056253;28;20552;-63
2024/03/04 03:28:38;;;;;;;55.87;35.20;;;7.90;99.90;;;;;;5059274;28;20421;-60
2024/03/04 03:31:04;;;;;;;43.93;33.00;;;8.00;99.90;;;;;;5058378;28;20426;-60
2024/03/04 03:33:29;;;;;;;39.23;29.80;;;7.90;99.90;;;;;;5052248;28;20445;-63
2024/03/04 03:35:55;;;;;;;44.63;30.83;;;7.90;99.90;;;;;;5069501;28;20198;-62
2024/03/04 03:38:21;;;;;;;47.73;31.87;;;7.90;99.90;;;;;;5068751;28;20695;-58
2024/03/04 03:40:46;;;;;;;46.83;31.80;;;7.90;99.90;;;;;;5060006;28;20610;-63
2024/03/04 03:43:12;;;;;;;51.23;32.30;;;7.90;99.90;;;;;;5055661;28;20180;-62
2024/03/04 03:45:38;;;;;;;50.13;29.70;;;7.80;99.90;;;;;;5055568;28;20219;-61
2024/03/04 03:48:04;;;;;;;44.40;32.80;;;7.90;99.90;;;;;;5053331;28;20558;-59
2024/03/04 03:50:30;;;;;;;49.73;31.43;;;7.90;99.90;;;;;;5050961;28;20436;-62
2024/03/04 03:52:55;;;;;;;49.70;33.43;;;7.80;99.90;;;;;;5058301;28;20566;-66
2024/03/04 03:55:21;;;;;;;50.97;34.83;;;7.80;99.90;;;;;;5061594;28;20204;-62
2024/03/04 03:57:46;;;;;;;45.60;33.27;;;7.80;99.90;;;;;;5055279;28;20184;-59
2024/03/04 04:00:13;;;;;;;45.87;30.87;;;7.80;99.90;;;;;;5034864;28;20190;-59
2024/03/04 04:02:39;;;;;;;48.37;33.43;;;7.70;99.90;;;;;;5059860;28;20709;-62
2024/03/04 04:05:04;;;;;;;43.80;30.97;;;7.70;99.90;;;;;;5053105;28;20453;-60
2024/03/04 04:07:30;;;;;;;46.00;34.40;;;7.70;99.90;;;;;;5058897;28;20713;-61
2024/03/04 04:09:55;;;;;;;48.03;33.90;;;7.70;99.90;;;;;;5059910;28;20186;-62
2024/03/04 04:12:21;;;;;;;50.27;35.23;;;7.70;99.90;;;;;;5061996;28;20181;-63
2024/03/04 04:14:48;;;;;;;45.87;32.93;;;7.70;99.90;;;;;;5044516;28;20226;-61
2024/03/04 04:17:14;;;;;;;44.77;32.07;;;7.60;99.90;;;;;;5067189;28;20196;-59
2024/03/04 04:19:39;;;;;;;45.07;33.53;;;7.60;99.90;;;;;;5062447;28;20525;-62
2024/03/04 04:22:05;;;;;;;47.87;36.03;;;7.60;99.90;;;;;;5062301;28;20229;-59
2024/03/04 04:24:31;;;;;;;55.63;35.40;;;7.60;99.90;;;;;;5051262;28;20176;-61
2024/03/04 04:26:57;;;;;;;46.57;32.60;;;7.60;99.90;;;;;;5066505;28;20426;-60
2024/03/04 04:29:23;;;;;;;47.73;33.70;;;7.60;99.90;;;;;;5046713;28;20413;-62
2024/03/04 04:31:48;;;;;;;44.70;31.97;;;7.60;99.90;;;;;;5057909;28;20581;-61
2024/03/04 04:34:14;;;;;;;45.20;34.70;;;7.70;99.90;;;;;;5060310;28;20263;-61
2024/03/04 04:36:47;;;;;;;47.97;33.93;;;7.70;99.90;;;;;;5058544;28;20201;-62
2024/03/04 04:39:13;;;;;;;43.27;35.23;;;7.70;99.90;;;;;;5050044;28;20656;-62
2024/03/04 04:41:39;;;;;;;45.60;33.73;;;7.70;99.90;;;;;;5056386;28;20430;-62
2024/03/04 04:44:04;;;;;;;51.50;32.90;;;7.70;99.90;;;;;;5066097;28;20273;-61
2024/03/04 04:46:30;;;;;;;47.83;33.17;;;7.70;99.90;;;;;;5050969;28;20307;-63
2024/03/04 04:48:56;;;;;;;49.03;34.50;;;7.60;99.90;;;;;;5060071;28;20658;-63
2024/03/04 04:51:22;;;;;;;52.30;37.90;;;7.60;99.90;;;;;;5054141;28;20436;-62
2024/03/04 04:53:47;;;;;;;48.40;34.27;;;7.60;99.90;;;;;;5060656;28;20544;-60
2024/03/04 04:56:17;;;;;;;50.40;35.10;;;7.50;99.90;;;;;;5055164;28;20588;-61
2024/03/04 04:58:43;;;;;;;55.33;37.90;;;7.50;99.90;;;;;;5060348;28;20565;-60
2024/03/04 05:01:08;;;;;;;51.67;35.27;;;7.50;99.90;;;;;;5070472;28;20429;-61
2024/03/04 05:03:35;;;;;;;57.77;37.13;;;7.40;99.90;;;;;;5065562;28;20989;-62
2024/03/04 05:06:01;;;;;;;58.03;35.90;;;7.40;99.90;;;;;;5062100;28;20227;-63
2024/03/04 05:08:27;;;;;;;51.93;35.73;;;7.40;99.90;;;;;;5061139;28;20433;-62
2024/03/04 05:10:53;;;;;;;49.40;34.60;;;7.40;99.90;;;;;;5067675;28;20434;-62
2024/03/04 05:13:20;;;;;;;45.73;34.37;;;7.30;99.90;;;;;;5054866;28;20424;-61
2024/03/04 05:15:46;;;;;;;50.50;36.83;;;7.30;99.90;;;;;;5059949;28;20464;-61
2024/03/04 05:18:12;;;;;;;55.33;36.50;;;7.30;99.90;;;;;;5069032;28;20430;-60
2024/03/04 05:20:38;;;;;;;54.80;38.30;;;7.20;99.90;;;;;;5059243;28;20929;-59
2024/03/04 05:23:04;;;;;;;59.60;38.20;;;7.20;99.90;;;;;;5065110;28;20460;-63
2024/03/04 05:25:30;;;;;;;54.27;36.20;;;7.20;99.90;;;;;;5062282;28;20286;-60
2024/03/04 05:27:55;;;;;;;56.73;36.87;;;7.20;99.90;;;;;;5068773;28;20204;-59
2024/03/04 05:30:21;;;;;;;52.87;34.90;;;7.20;99.90;;;;;;5065604;28;20430;-61
2024/03/04 05:32:46;;;;;;;58.47;37.67;;;7.20;99.90;;;;;;5058838;28;20203;-62
2024/03/04 05:35:12;;;;;;;51.83;38.17;;;7.20;99.90;;;;;;5062111;28;20620;-60
2024/03/04 05:37:41;;;;;;;52.40;34.90;;;7.10;99.90;;;;;;5063679;28;20206;-61
2024/03/04 05:40:09;;;;;;;49.33;37.77;;;7.10;99.90;;;;;;5057079;28;20730;-63
2024/03/04 05:42:39;;;;;;;51.97;37.20;;;7.10;99.90;;;;;;5061077;28;20427;-63
2024/03/04 05:45:06;;;;;;;54.33;37.40;;;7.10;99.90;;;;;;5053677;28;20435;-60
2024/03/04 05:47:32;;;;;;;56.53;40.07;;;7.10;99.90;;;;;;5053827;28;20429;-61
2024/03/04 05:49:57;;;;;;;55.80;38.10;;;7.10;99.90;;;;;;5054881;28;20415;-62
2024/03/04 05:52:25;;;;;;;49.93;36.10;;;7.10;99.90;;;;;;5070306;28;20192;-62
2024/03/04 05:54:51;;;;;;;56.27;40.00;;;7.10;99.90;;;;;;5059054;28;20208;-60
2024/03/04 05:57:17;;;;;;;54.13;38.40;;;7.10;99.90;;;;;;5057965;28;20429;-61
2024/03/04 05:59:42;;;;;;;56.47;37.27;;;7.10;99.90;;;;;;5057296;28;20781;-59
2024/03/04 06:02:08;;;;;;;52.37;39.00;;;7.00;99.90;;;;;;5063645;28;20193;-61
2024/03/04 06:04:33;;;;;;;51.60;36.17;;;7.00;99.90;;;;;;5062499;28;20195;-60
2024/03/04 06:06:59;;;;;;;55.87;37.90;;;7.10;99.90;;;;;;5058086;28;20199;-61
2024/03/04 06:09:26;;;;;;;68.00;39.70;;;7.00;99.90;;;;;;5060027;28;20219;-62
2024/03/04 06:11:52;;;;;;;52.93;37.53;;;7.00;99.90;;;;;;5069596;28;20433;-61
2024/03/04 06:14:18;;;;;;;52.70;36.17;;;7.00;99.90;;;;;;5063796;28;20504;-66
2024/03/04 06:16:47;;;;;;;53.53;36.27;;;7.00;99.90;;;;;;5066074;28;20208;-62
2024/03/04 06:19:13;;;;;;;55.47;37.37;;;7.10;99.90;;;;;;5053488;28;20420;-63
2024/03/04 06:21:38;;;;;;;52.30;37.53;;;7.00;99.90;;;;;;5058393;28;20415;-62
2024/03/04 06:24:04;;;;;;;51.50;38.10;;;7.10;99.90;;;;;;5058931;28;20452;-67
2024/03/04 06:26:30;;;;;;;55.47;37.47;;;7.10;99.90;;;;;;5053434;28;20622;-62
2024/03/04 06:28:56;;;;;;;60.00;39.47;;;7.10;99.90;;;;;;5058462;28;20419;-62
2024/03/04 06:31:22;;;;;;;56.73;37.60;;;7.20;99.90;;;;;;5066045;28;20458;-63
2024/03/04 06:33:48;;;;;;;53.53;35.40;;;7.20;99.90;;;;;;5053353;28;20439;-61
2024/03/04 06:36:14;;;;;;;55.37;37.53;;;7.20;99.90;;;;;;5038521;28;20205;-61
2024/03/04 06:38:40;;;;;;;53.23;36.13;;;7.30;99.90;;;;;;5066811;28;20418;-59
2024/03/04 06:41:06;;;;;;;50.20;37.70;;;7.40;99.90;;;;;;5058999;28;20503;-62
2024/03/04 06:43:33;;;;;;;51.83;35.33;;;7.50;99.90;;;;;;5064525;28;20423;-63
2024/03/04 06:45:59;;;;;;;48.40;35.63;;;7.60;99.90;;;;;;5067905;28;20438;-60
2024/03/04 06:48:25;;;;;;;50.60;33.80;;;7.60;99.90;;;;;;5059780;28;20431;-59
2024/03/04 06:50:51;;;;;;;48.47;35.43;;;7.80;99.90;;;;;;5056618;28;20532;-62
2024/03/04 06:53:17;;;;;;;51.30;35.93;;;8.00;99.90;;;;;;5053553;28;20419;-61
2024/03/04 06:55:42;;;;;;;52.97;33.73;;;8.20;99.90;;;;;;5057717;28;20651;-63
2024/03/04 06:58:08;;;;;;;45.43;32.97;;;8.50;99.90;;;;;;5067955;28;20198;-62
2024/03/04 07:00:33;;;;;;;44.57;31.57;;;8.60;99.90;;;;;;5064624;28;20174;-62
2024/03/04 07:02:59;;;;;;;46.70;30.27;;;8.60;99.90;;;;;;5059571;28;20596;-61
2024/03/04 07:05:25;;;;;;;52.67;31.17;;;8.60;99.90;;;;;;5063183;28;20220;-63
2024/03/04 07:07:51;;;;;;;45.70;31.07;;;8.70;99.90;;;;;;5058380;28;20191;-63
2024/03/04 07:10:17;;;;;;;43.33;30.33;;;8.60;99.90;;;;;;5061440;28;20833;-63
2024/03/04 07:12:42;;;;;;;44.53;30.90;;;8.50;99.90;;;;;;5063579;28;20632;-59
2024/03/04 07:15:08;;;;;;;44.17;29.83;;;8.60;99.90;;;;;;5062059;28;20436;-62
2024/03/04 07:17:34;;;;;;;36.47;29.03;;;8.50;99.90;;;;;;5064561;28;20186;-60
2024/03/04 07:20:00;;;;;;;39.17;29.87;;;8.50;99.90;;;;;;5065043;28;20424;-60
2024/03/04 07:22:26;;;;;;;37.63;29.97;;;8.50;99.90;;;;;;5062500;28;20777;-60
2024/03/04 07:24:51;;;;;;;50.90;32.40;;;8.70;99.90;;;;;;5064588;28;20277;-61
2024/03/04 07:27:17;;;;;;;42.07;29.43;;;8.90;99.90;;;;;;5065115;28;20664;-59
2024/03/04 07:29:44;;;;;;;35.77;25.80;;;8.80;99.90;;;;;;5064669;28;20195;-62
2024/03/04 07:32:09;;;;;;;46.53;29.80;;;8.80;99.90;;;;;;5063830;28;20237;-61
2024/03/04 07:34:35;;;;;;;40.50;28.27;;;9.00;99.90;;;;;;5053158;28;20421;-64
2024/03/04 07:37:01;;;;;;;38.07;29.30;;;9.30;99.90;;;;;;5053418;28;20721;-63
2024/03/04 07:39:28;;;;;;;37.10;26.97;;;9.60;99.90;;;;;;5061044;28;20177;-62
2024/03/04 07:41:53;;;;;;;36.63;27.93;;;10.00;99.90;;;;;;5064737;28;20205;-63
2024/03/04 07:44:19;;;;;;;38.57;27.57;;;10.10;99.90;;;;;;5060216;28;20485;-62
2024/03/04 07:46:47;;;;;;;31.97;25.37;;;10.30;99.90;;;;;;5065554;28;20206;-62
2024/03/04 07:49:12;;;;;;;34.97;26.33;;;10.50;99.90;;;;;;5058695;28;20218;-60
2024/03/04 07:51:38;;;;;;;35.50;25.70;;;10.60;99.90;;;;;;5060247;28;20877;-62
2024/03/04 07:54:04;;;;;;;34.10;25.37;;;10.90;99.90;;;;;;5058337;28;20227;-63
2024/03/04 07:56:33;;;;;;;33.50;25.73;;;11.50;99.90;;;;;;5056712;28;20248;-63
2024/03/04 07:58:59;;;;;;;30.50;22.80;;;11.50;99.90;;;;;;5064719;28;20418;-61
2024/03/04 08:01:25;;;;;;;31.10;24.43;;;11.70;99.90;;;;;;5061653;28;20415;-63
2024/03/04 08:03:50;;;;;;;33.33;24.17;;;11.80;99.90;;;;;;5060011;28;20836;-63
2024/03/04 08:06:16;;;;;;;32.00;24.27;;;12.20;99.90;;;;;;5055041;28;20329;-63
2024/03/04 08:08:43;;;;;;;32.70;23.80;;;12.20;99.90;;;;;;5052793;28;20191;-62
2024/03/04 08:11:09;;;;;;;31.23;24.27;;;12.20;99.90;;;;;;5053003;28;20228;-61
2024/03/04 08:13:34;;;;;;;28.27;22.87;;;12.50;99.90;;;;;;5054384;28;20467;-63
2024/03/04 08:16:00;;;;;;;30.33;24.77;;;12.80;99.90;;;;;;5061850;28;20495;-64
2024/03/04 08:18:26;;;;;;;31.47;24.87;;;12.90;99.90;;;;;;5061503;28;20241;-65
2024/03/04 08:20:52;;;;;;;30.10;22.73;;;12.80;99.90;;;;;;5070093;28;20207;-63
2024/03/04 08:23:18;;;;;;;28.80;23.27;;;12.60;99.90;;;;;;5060442;28;20210;-62
2024/03/04 08:25:44;;;;;;;30.37;23.97;;;13.00;99.90;;;;;;5039849;28;20450;-62
2024/03/04 08:28:11;;;;;;;34.83;24.67;;;13.10;99.90;;;;;;5059246;28;20758;-65
2024/03/04 08:30:37;;;;;;;31.27;24.83;;;13.20;99.90;;;;;;5056645;28;20192;-63
2024/03/04 08:33:06;;;;;;;30.60;25.03;;;13.10;99.90;;;;;;5057029;28;20414;-62
2024/03/04 08:35:31;;;;;;;29.23;22.40;;;13.50;99.90;;;;;;5056408;28;21019;-62
2024/03/04 08:37:57;;;;;;;33.20;24.40;;;13.80;99.90;;;;;;5061754;28;20514;-63
2024/03/04 08:40:25;;;;;;;29.83;24.10;;;14.30;99.90;;;;;;5063598;28;20268;-62
2024/03/04 08:42:51;;;;;;;28.60;24.60;;;14.40;99.90;;;;;;5059701;28;20278;-67
2024/03/04 08:45:16;;;;;;;30.20;24.07;;;14.90;99.90;;;;;;5060485;28;20524;-67
2024/03/04 08:47:42;;;;;;;31.30;24.53;;;14.40;99.90;;;;;;5065153;28;20192;-63
2024/03/04 08:50:11;;;;;;;28.57;24.27;;;15.10;99.90;;;;;;5064282;28;20192;-62
2024/03/04 08:52:36;;;;;;;32.43;25.87;;;15.10;99.90;;;;;;5070235;28;20186;-64
2024/03/04 08:55:03;;;;;;;32.10;23.30;;;15.10;99.90;;;;;;5056711;28;20495;-64
2024/03/04 08:57:29;;;;;;;28.03;23.60;;;15.30;99.90;;;;;;5063782;28;20179;-63
2024/03/04 08:59:54;;;;;;;34.40;24.53;;;15.80;99.90;;;;;;5060649;28;20988;-62
2024/03/04 09:02:20;;;;;;;32.53;24.97;;;15.00;99.90;;;;;;5062501;28;20183;-63
2024/03/04 09:04:47;;;;;;;31.83;23.40;;;14.60;99.90;;;;;;5056551;28;20203;-63
2024/03/04 09:07:14;;;;;;;33.07;25.00;;;14.60;99.90;;;;;;5071540;28;20206;-64
2024/03/04 09:09:40;;;;;;;33.40;24.67;;;14.70;99.90;;;;;;5067182;28;20467;-63
2024/03/04 09:12:08;;;;;;;32.27;25.97;;;14.80;99.90;;;;;;5066777;28;20458;-63
2024/03/04 09:14:34;;;;;;;29.57;25.47;;;14.80;99.90;;;;;;5055903;28;20435;-63
2024/03/04 09:16:59;;;;;;;32.07;24.30;;;15.00;99.90;;;;;;5057845;28;20449;-63
2024/03/04 09:19:25;;;;;;;32.30;25.83;;;15.20;99.90;;;;;;5060704;28;20275;-61
2024/03/04 09:21:50;;;;;;;29.83;25.90;;;15.60;99.90;;;;;;5061383;28;20172;-62
2024/03/04 09:24:16;;;;;;;32.67;27.30;;;15.00;99.90;;;;;;5059095;28;20210;-65
2024/03/04 09:26:50;;;;;;;34.47;27.47;;;14.20;99.90;;;;;;5056562;28;20203;-65
2024/03/04 09:29:16;;;;;;;37.23;25.87;;;13.80;99.90;;;;;;5064938;28;20179;-63
2024/03/04 09:31:44;;;;;;;124.07;66.10;;;13.30;99.90;;;;;;5061869;28;20414;-65
2024/03/04 09:34:09;;;;;;;162.50;100.63;;;13.10;99.90;;;;;;5066610;28;20591;-70
2024/03/04 09:36:35;;;;;;;75.13;50.07;;;13.10;99.90;;;;;;5052047;28;20474;-63
2024/03/04 09:39:01;;;;;;;108.93;65.50;;;12.60;99.90;;;;;;5061021;28;20179;-63
2024/03/04 09:41:30;;;;;;;40.47;30.97;;;12.60;99.90;;;;;;5062865;28;20597;-64
2024/03/04 09:43:57;;;;;;;41.97;30.40;;;12.20;99.90;;;;;;5056872;28;20520;-63
2024/03/04 09:46:24;;;;;;;40.07;29.97;;;11.90;99.90;;;;;;5061093;28;20447;-62
2024/03/04 09:48:51;;;;;;;42.67;29.10;;;11.80;99.90;;;;;;5063488;28;20417;-63
2024/03/04 09:51:20;;;;;;;40.33;28.30;;;12.00;99.90;;;;;;5062965;28;20439;-64
2024/03/04 09:53:50;;;;;;;41.10;30.40;;;12.00;99.90;;;;;;5050805;28;20965;-62
2024/03/04 09:56:15;;;;;;;38.97;30.53;;;11.80;99.90;;;;;;5058891;28;20469;-62
2024/03/04 09:58:41;;;;;;;36.57;28.20;;;11.60;99.90;;;;;;5045262;28;20479;-64
2024/03/04 10:01:07;;;;;;;35.13;27.30;;;11.50;99.90;;;;;;5034593;28;20175;-63
2024/03/04 10:03:33;;;;;;;40.37;30.50;;;11.40;99.90;;;;;;5061379;28;20273;-64
2024/03/04 10:05:59;;;;;;;42.37;29.47;;;11.30;99.90;;;;;;5068314;28;20707;-63
2024/03/04 10:08:25;;;;;;;41.00;29.07;;;11.50;99.90;;;;;;5057749;28;20465;-62
2024/03/04 10:10:50;;;;;;;36.37;30.03;;;11.50;99.90;;;;;;5061048;28;20171;-62
2024/03/04 10:13:17;;;;;;;43.17;30.33;;;11.50;99.90;;;;;;5059472;28;20206;-65
2024/03/04 10:15:46;;;;;;;41.43;30.70;;;11.60;99.90;;;;;;5065275;28;20258;-64
2024/03/04 10:18:12;;;;;;;39.00;29.50;;;11.40;99.90;;;;;;5064685;28;20448;-63
2024/03/04 10:20:39;;;;;;;52.53;37.57;;;11.40;99.90;;;;;;5056038;28;20508;-62
2024/03/04 10:23:05;;;;;;;45.83;32.70;;;11.50;99.90;;;;;;5058750;28;20482;-61
2024/03/04 10:25:32;;;;;;;40.80;30.53;;;11.50;99.90;;;;;;5068195;28;20456;-63
2024/03/04 10:27:57;;;;;;;43.40;32.97;;;11.60;99.90;;;;;;5064768;28;20449;-62
2024/03/04 10:30:27;;;;;;;45.87;34.50;;;11.50;99.90;;;;;;5063108;28;20527;-65
2024/03/04 10:32:57;;;;;;;38.53;31.47;;;11.70;99.90;;;;;;5067006;28;20186;-63
2024/03/04 10:35:23;;;;;;;39.93;30.40;;;11.90;99.90;;;;;;5056562;28;21113;-62
2024/03/04 10:37:50;;;;;;;36.20;28.67;;;11.80;99.90;;;;;;5066291;28;20418;-64
2024/03/04 10:40:20;;;;;;;39.60;29.90;;;11.90;99.90;;;;;;5067365;28;20582;-62
2024/03/04 10:42:46;;;;;;;42.00;30.00;;;11.70;99.90;;;;;;5067154;28;20447;-63
2024/03/04 10:45:13;;;;;;;41.33;31.13;;;11.70;99.90;;;;;;5061443;28;20433;-61
2024/03/04 10:47:41;;;;;;;49.17;32.13;;;11.80;99.90;;;;;;5068561;28;20475;-61
2024/03/04 10:50:08;;;;;;;42.57;29.10;;;11.90;99.90;;;;;;5062301;28;20451;-62
2024/03/04 10:52:34;;;;;;;44.30;33.50;;;11.80;99.90;;;;;;5055423;28;20412;-62
2024/03/04 10:55:00;;;;;;;40.60;31.50;;;11.90;99.90;;;;;;5058765;28;20487;-64
2024/03/04 10:57:30;;;;;;;41.73;29.07;;;12.10;99.90;;;;;;5063599;28;20477;-62
2024/03/04 11:00:25;;;;;;;38.80;31.10;;;12.20;99.90;;;;;;5068171;28;20421;-63
2024/03/04 11:03:05;;;;;;;39.90;28.07;;;12.40;99.90;;;;;;5065223;28;22474;-61
2024/03/04 11:05:34;;;;;;;40.10;31.57;;;12.30;99.90;;;;;;5066770;28;20794;-61
2024/03/04 11:08:07;;;;;;;45.27;31.27;;;12.30;99.90;;;;;;5059911;28;20782;-63
2024/03/04 11:10:35;;;;;;;42.23;30.13;;;12.20;99.90;;;;;;5062186;28;20799;-62
2024/03/04 11:13:16;;;;;;;46.07;32.43;;;12.10;99.90;;;;;;5065099;28;20417;-62
2024/03/04 11:15:56;;;;;;;42.10;31.17;;;12.10;99.90;;;;;;5056769;28;20467;-62
2024/03/04 11:18:55;;;;;;;45.13;30.57;;;12.10;99.90;;;;;;5057654;28;20428;-62
2024/03/04 11:21:22;;;;;;;41.47;31.43;;;12.00;99.90;;;;;;5065530;28;20817;-59
2024/03/04 11:23:49;;;;;;;41.57;31.00;;;12.00;99.90;;;;;;5055581;28;20413;-61
2024/03/04 11:26:15;;;;;;;33.13;28.70;;;12.20;99.90;;;;;;5067780;28;20576;-63
2024/03/04 11:28:42;;;;;;;42.50;31.83;;;12.30;99.90;;;;;;5027526;28;20437;-62
2024/03/04 11:31:21;;;;;;;44.03;31.10;;;12.30;99.90;;;;;;5064150;28;20425;-63
2024/03/04 11:33:47;;;;;;;40.40;31.27;;;12.40;99.90;;;;;;5064509;28;21123;-61
2024/03/04 11:36:13;;;;;;;40.53;31.00;;;12.50;99.90;;;;;;5065727;28;20469;-60
2024/03/04 11:38:44;;;;;;;45.30;33.60;;;12.60;99.90;;;;;;5065913;28;20174;-60
2024/03/04 11:41:30;;;;;;;42.70;31.07;;;12.50;99.90;;;;;;5067143;28;20527;-62
2024/03/04 11:43:56;;;;;;;39.87;30.70;;;12.50;99.90;;;;;;5061573;28;20440;-60
2024/03/04 11:46:22;;;;;;;47.73;33.60;;;12.70;99.90;;;;;;5066971;28;20444;-60
2024/03/04 11:48:47;;;;;;;41.13;32.17;;;12.60;99.90;;;;;;5059567;28;20218;-62
2024/03/04 11:51:14;;;;;;;42.37;32.00;;;12.40;99.90;;;;;;5058514;28;20413;-63
2024/03/04 11:53:43;;;;;;;49.93;34.63;;;12.40;99.90;;;;;;5057118;28;20186;-59
2024/03/04 11:56:09;;;;;;;48.87;32.23;;;12.70;99.90;;;;;;5061126;28;20488;-61
2024/03/04 11:58:37;;;;;;;47.20;32.20;;;12.60;99.90;;;;;;5056406;28;20440;-64
2024/03/04 12:01:03;;;;;;;48.10;36.13;;;12.70;99.90;;;;;;5057032;28;20257;-64
2024/03/04 12:03:28;;;;;;;42.37;34.60;;;12.40;99.90;;;;;;5057132;28;20509;-61
2024/03/04 12:05:54;;;;;;;44.57;35.07;;;12.10;99.90;;;;;;5069714;28;20305;-62
2024/03/04 12:08:21;;;;;;;46.80;35.23;;;12.00;99.90;;;;;;5058123;28;20672;-62
2024/03/04 12:10:46;;;;;;;45.87;35.73;;;12.10;99.90;;;;;;5062105;28;20505;-62
2024/03/04 12:13:12;;;;;;;48.93;35.77;;;12.30;99.90;;;;;;5057811;28;20532;-60
2024/03/04 12:15:41;;;;;;;46.30;35.17;;;12.60;99.90;;;;;;5060494;28;20252;-62
2024/03/04 12:18:08;;;;;;;44.50;37.80;;;12.60;99.90;;;;;;5050324;28;20260;-63
2024/03/04 12:20:34;;;;;;;45.23;33.57;;;12.60;99.90;;;;;;5066140;28;20423;-63
2024/03/04 12:23:03;;;;;;;52.00;34.90;;;12.50;99.90;;;;;;5066627;28;20416;-63
2024/03/04 12:25:29;;;;;;;43.07;33.70;;;12.50;99.90;;;;;;5057515;28;20264;-62
2024/03/04 12:27:55;;;;;;;50.87;33.90;;;12.50;99.90;;;;;;5051854;28;20460;-63
2024/03/04 12:30:23;;;;;;;42.40;33.00;;;12.60;99.90;;;;;;5059500;28;20181;-62